Sorell, Australia
Current Conditions -  °F | °C
As of 3:00 PM on Saturday 25 Oct 2014 (Local Time) from YMHB Reporting Station
Broken Clouds Broken Clouds  
Wind Chill: 59°   Ceiling: 25000
Heat Index: 59°   Visibility: 6mi
Dew Point: 48°   Wind: 21mph
Humidity: 67%   Direction: 160°SSE
Pressure: 30"   Gusts: NA
Location:  42.78°S, 147.56°E
Report Text: YMHB 250400Z 16018KT 9999 FEW030 BKN250 15/09 Q1016
Loading
Personal Weather Stations






























Interactive Weather Map
Tropical Storm Tracking
New forecast layout! Learn more

10-Day Weather Forecast

Advertisements
Track Severe Weather on mobile